createdAt,value
2018-09-29T00:00:48.863Z,60464.96
2018-09-29T00:03:17.069Z,60452.76
2018-09-29T00:05:45.235Z,60470.04
2018-09-29T00:08:13.411Z,60450.73
2018-09-29T00:10:41.599Z,60465.97
2018-09-29T00:13:09.779Z,60460.89
2018-09-29T00:15:37.976Z,60458.86
2018-09-29T00:18:06.153Z,60452.76
2018-09-29T00:20:34.533Z,60476.13
2018-09-29T00:23:02.713Z,60445.65
2018-09-29T00:25:30.891Z,60429.39
2018-09-29T00:27:59.079Z,60454.79
2018-09-29T00:30:27.265Z,60458.86
2018-09-29T00:32:55.460Z,60464.96
2018-09-29T00:35:23.631Z,60462.92
2018-09-29T00:37:51.835Z,60444.63
2018-09-29T00:40:20.007Z,60474.10
2018-09-29T00:42:48.191Z,60459.87
2018-09-29T00:45:16.377Z,60455.81
2018-09-29T00:47:44.573Z,60469.02
2018-09-29T00:50:12.759Z,60475.12
2018-09-29T00:52:40.963Z,60473.09
2018-09-29T00:55:09.155Z,60462.92
2018-09-29T00:57:37.339Z,60460.89
2018-09-29T01:00:05.663Z,60458.86
2018-09-29T01:02:33.872Z,60488.33
2018-09-29T01:05:02.052Z,60479.18
2018-09-29T01:07:30.231Z,60462.92
2018-09-29T01:09:58.411Z,60469.02
2018-09-29T01:12:26.601Z,60482.23
2018-09-29T01:14:54.780Z,60462.92
2018-09-29T01:17:22.959Z,60464.96
2018-09-29T01:19:51.135Z,60455.81
2018-09-29T01:22:19.502Z,60464.96
2018-09-29T01:24:47.713Z,60453.78
2018-09-29T01:27:15.893Z,60470.04
2018-09-29T01:29:44.074Z,60471.05
2018-09-29T01:32:12.275Z,60466.99
2018-09-29T01:34:40.463Z,60440.57
2018-09-29T01:37:09.079Z,60456.82
2018-09-29T01:39:37.255Z,60451.75
2018-09-29T01:42:05.442Z,60456.82
2018-09-29T01:44:33.633Z,60458.86
2018-09-29T01:47:01.802Z,60487.31
2018-09-29T01:49:30.003Z,60477.15
2018-09-29T01:51:58.193Z,60476.13
2018-09-29T01:54:26.379Z,60486.29
2018-09-29T01:56:54.563Z,60460.89
2018-09-29T01:59:22.760Z,60463.94
2018-09-29T02:01:50.935Z,60501.54
2018-09-29T02:04:19.123Z,60490.36
2018-09-29T02:06:47.300Z,60449.71
2018-09-29T02:09:15.484Z,60475.12
2018-09-29T02:11:43.689Z,60481.21
2018-09-29T02:14:11.866Z,60483.25
2018-09-29T02:16:40.056Z,60482.23
2018-09-29T02:19:08.235Z,60476.13
2018-09-29T02:21:36.407Z,60475.12
2018-09-29T02:24:04.605Z,60463.94
2018-09-29T02:26:32.782Z,60473.09
2018-09-29T02:29:01.020Z,60478.16
2018-09-29T02:31:29.163Z,60453.78
2018-09-29T02:33:57.340Z,60505.60
2018-09-29T02:36:25.538Z,60478.16
2018-09-29T02:38:53.736Z,60469.02
2018-09-29T02:41:21.920Z,60483.25
2018-09-29T02:43:50.101Z,60489.34
2018-09-29T02:46:18.300Z,60472.07
2018-09-29T02:48:46.493Z,60457.84
2018-09-29T02:51:14.688Z,60447.68
2018-09-29T02:53:42.872Z,60484.26
2018-09-29T02:56:11.074Z,60471.05
2018-09-29T02:58:39.241Z,60475.12
2018-09-29T03:01:07.644Z,60459.87
2018-09-29T03:03:35.823Z,60490.36
2018-09-29T03:06:04.030Z,60477.15
2018-09-29T03:08:32.225Z,60488.33
2018-09-29T03:11:00.383Z,60493.41
2018-09-29T03:13:28.583Z,60474.10
2018-09-29T03:15:56.763Z,60529.99
2018-09-29T03:18:24.989Z,60488.33
2018-09-29T03:20:53.178Z,60502.55
2018-09-29T03:23:21.359Z,60478.16
2018-09-29T03:25:49.539Z,60492.39
2018-09-29T03:28:17.727Z,60470.04
2018-09-29T03:30:45.928Z,60484.26
2018-09-29T03:33:14.095Z,60480.20
2018-09-29T03:35:42.358Z,60507.64
2018-09-29T03:38:10.535Z,60490.36
2018-09-29T03:40:38.723Z,60485.28
2018-09-29T03:43:06.911Z,60494.43
2018-09-29T03:45:35.105Z,60498.49
2018-09-29T03:48:03.305Z,60493.41
2018-09-29T03:50:31.492Z,60471.05
2018-09-29T03:52:59.686Z,60489.34
2018-09-29T03:55:27.872Z,60479.18
2018-09-29T03:57:56.052Z,60480.20
2018-09-29T04:00:24.234Z,60471.05
2018-09-29T04:02:52.466Z,60487.31
2018-09-29T04:05:20.642Z,60478.16
2018-09-29T04:07:48.851Z,60474.10
2018-09-29T04:10:17.045Z,60477.15
2018-09-29T04:12:45.242Z,60508.65
2018-09-29T04:15:13.435Z,60493.41
2018-09-29T04:17:41.643Z,60470.04
2018-09-29T04:20:09.860Z,60486.29
2018-09-29T04:22:38.058Z,60496.46
2018-09-29T04:25:06.253Z,60502.55
2018-09-29T04:27:34.426Z,60485.28
2018-09-29T04:30:02.632Z,60479.18
2018-09-29T04:32:30.842Z,60488.33
2018-09-29T04:34:59.015Z,60473.09
2018-09-29T04:37:27.200Z,60465.97
2018-09-29T04:39:55.382Z,60482.23
2018-09-29T04:42:23.555Z,60490.36
2018-09-29T04:44:51.799Z,60502.55
2018-09-29T04:47:20.130Z,60481.21
2018-09-29T04:49:48.306Z,60478.16
2018-09-29T04:52:16.496Z,60502.55
2018-09-29T04:54:44.690Z,60495.44
2018-09-29T04:57:12.914Z,60483.25
2018-09-29T04:59:41.108Z,60479.18
2018-09-29T05:02:09.309Z,60502.55
2018-09-29T05:04:37.488Z,60496.46
2018-09-29T05:07:12.196Z,60505.60
2018-09-29T05:09:40.467Z,60499.50
2018-09-29T05:12:08.768Z,60475.12
2018-09-29T05:14:36.952Z,60509.67
2018-09-29T05:17:05.144Z,60481.21
2018-09-29T05:19:33.331Z,60480.20
2018-09-29T05:22:01.511Z,60501.54
2018-09-29T05:24:29.703Z,60488.33
2018-09-29T05:26:57.895Z,60492.39
2018-09-29T05:29:26.144Z,60481.21
2018-09-29T05:31:54.332Z,60513.73
2018-09-29T05:34:22.532Z,60479.18
2018-09-29T05:36:50.732Z,60484.26
2018-09-29T05:39:18.967Z,60474.10
2018-09-29T05:41:47.143Z,60488.33
2018-09-29T05:44:15.360Z,60500.52
2018-09-29T05:46:43.550Z,60493.41
2018-09-29T05:49:11.723Z,60493.41
2018-09-29T05:51:39.915Z,60488.33
2018-09-29T05:54:08.103Z,60477.15
2018-09-29T05:56:36.295Z,60498.49
2018-09-29T05:59:04.476Z,60497.47
2018-09-29T06:01:32.755Z,60501.54
2018-09-29T06:04:00.983Z,60477.15
2018-09-29T06:06:31.311Z,60523.89
2018-09-29T06:08:59.829Z,60472.07
2018-09-29T06:11:28.079Z,60526.95
2018-09-29T06:13:57.047Z,60471.05
2018-09-29T06:16:25.224Z,60524.91
2018-09-29T06:18:53.695Z,60511.70
2018-09-29T06:21:21.880Z,60485.28
2018-09-29T06:23:50.108Z,60486.29
2018-09-29T06:26:18.296Z,60487.31
2018-09-29T06:28:46.475Z,60499.50
2018-09-29T06:31:14.753Z,60498.49
2018-09-29T06:33:42.972Z,60458.86
2018-09-29T06:36:11.244Z,60447.68
2018-09-29T06:38:39.443Z,60486.29
2018-09-29T06:41:07.683Z,60510.68
2018-09-29T06:43:35.859Z,60486.29
2018-09-29T06:46:04.070Z,60479.18
2018-09-29T06:48:32.253Z,60472.07
2018-09-29T06:51:00.443Z,60477.15
2018-09-29T06:53:28.615Z,60468.00
2018-09-29T06:55:56.811Z,60496.46
2018-09-29T06:58:24.996Z,60478.16
2018-09-29T07:00:53.187Z,60505.60
2018-09-29T07:03:21.363Z,60482.23
2018-09-29T07:05:49.557Z,60486.29
2018-09-29T07:08:17.744Z,60461.91
2018-09-29T07:10:45.923Z,60488.33
2018-09-29T07:13:14.108Z,60486.29
2018-09-29T07:15:42.287Z,60469.02
2018-09-29T07:18:10.476Z,60495.44
2018-09-29T07:20:38.659Z,60486.29
2018-09-29T07:23:06.854Z,60491.38
2018-09-29T07:25:35.057Z,60459.87
2018-09-29T07:28:03.212Z,60478.16
2018-09-29T07:30:31.487Z,60461.91
2018-09-29T07:32:59.584Z,60453.78
2018-09-29T07:35:27.763Z,60462.92
2018-09-29T07:37:56.020Z,60469.02
2018-09-29T07:40:24.208Z,60463.94
2018-09-29T07:42:52.391Z,60442.60
2018-09-29T07:45:20.576Z,60463.94
2018-09-29T07:47:48.776Z,60464.96
2018-09-29T07:50:16.956Z,60463.94
2018-09-29T07:52:45.158Z,60468.00
2018-09-29T07:55:13.348Z,60486.29
2018-09-29T07:57:41.554Z,60486.29
2018-09-29T08:00:10.611Z,60454.79
2018-09-29T08:02:38.812Z,60487.31
2018-09-29T08:05:07.020Z,60455.81
2018-09-29T08:07:35.216Z,60470.04
2018-09-29T08:10:03.616Z,60491.38
2018-09-29T08:12:31.928Z,60456.82
2018-09-29T08:15:00.052Z,60459.87
2018-09-29T08:17:28.236Z,60462.92
2018-09-29T08:19:56.430Z,60474.10
2018-09-29T08:22:24.607Z,60468.00
2018-09-29T08:24:52.811Z,60457.84
2018-09-29T08:27:20.991Z,60465.97
2018-09-29T08:29:49.165Z,60480.20
2018-09-29T08:32:17.353Z,60495.44
2018-09-29T08:34:45.546Z,60459.87
2018-09-29T08:37:13.726Z,60465.97
2018-09-29T08:39:41.932Z,60433.45
2018-09-29T08:42:10.120Z,60457.84
2018-09-29T08:44:38.308Z,60473.09
2018-09-29T08:47:06.535Z,60459.87
2018-09-29T08:49:34.712Z,60430.40
2018-09-29T08:52:03.701Z,60441.58
2018-09-29T08:54:31.935Z,60472.07
2018-09-29T08:57:00.223Z,60440.57
2018-09-29T08:59:29.007Z,60430.40
2018-09-29T09:01:57.191Z,60443.61
2018-09-29T09:04:25.374Z,60441.58
2018-09-29T09:06:53.583Z,60432.44
2018-09-29T09:09:21.771Z,60414.14
2018-09-29T09:11:49.945Z,60464.96
2018-09-29T09:14:18.146Z,60445.65
2018-09-29T09:16:46.328Z,60438.53
2018-09-29T09:19:14.512Z,60442.60
2018-09-29T09:21:42.690Z,60440.57
2018-09-29T09:24:10.888Z,60445.65
2018-09-29T09:26:39.889Z,60431.42
2018-09-29T09:29:08.266Z,60422.27
2018-09-29T09:31:36.684Z,60435.48
2018-09-29T09:34:04.887Z,60425.32
2018-09-29T09:36:33.295Z,60402.97
2018-09-29T09:39:01.501Z,60384.68
2018-09-29T09:41:29.681Z,60392.80
2018-09-29T09:43:57.868Z,60406.02
2018-09-29T09:46:26.048Z,60393.82
2018-09-29T09:48:54.233Z,60369.43
2018-09-29T09:51:22.424Z,60361.30
2018-09-29T09:53:50.654Z,60359.27
2018-09-29T09:56:18.829Z,60383.66
2018-09-29T09:58:47.015Z,60392.80
2018-09-29T10:01:20.531Z,60357.24
2018-09-29T10:03:48.720Z,60361.30
2018-09-29T10:06:16.951Z,60377.56
2018-09-29T10:08:45.079Z,60392.80
2018-09-29T10:11:13.301Z,60355.21
2018-09-29T10:13:41.487Z,60354.19
2018-09-29T10:38:46.952Z,60344.03
2018-09-29T10:41:20.690Z,60321.67
2018-09-29T10:46:39.029Z,60312.53
2018-09-29T10:51:57.507Z,60306.43
2018-09-29T10:57:32.588Z,60320.66
2018-09-29T11:10:42.183Z,60317.61
2018-09-29T11:18:34.575Z,60300.34
2018-09-29T11:23:52.560Z,60304.40
2018-09-29T11:26:26.435Z,60312.53
2018-09-29T11:29:00.226Z,60294.24
2018-09-29T11:31:45.113Z,60298.30
2018-09-29T11:37:09.164Z,60328.79
2018-09-29T11:45:12.027Z,60294.24
2018-09-29T11:50:36.631Z,60313.54
2018-09-29T11:55:49.687Z,60300.34
2018-09-29T11:58:17.856Z,60286.11
2018-09-29T12:06:24.918Z,60307.45
2018-09-29T12:11:55.699Z,60301.35
2018-09-29T12:14:35.222Z,60332.85
2018-09-29T12:19:47.891Z,60307.45
2018-09-29T12:22:21.463Z,60311.51
2018-09-29T12:27:39.949Z,60306.43
2018-09-29T13:07:15.243Z,60298.30
2018-09-29T13:09:43.422Z,60299.32
2018-09-29T13:12:12.483Z,60296.27
2018-09-29T13:14:41.471Z,60297.29
2018-09-29T13:17:10.958Z,60276.96
2018-09-29T13:19:39.187Z,60288.14
2018-09-29T13:22:07.970Z,60300.34
2018-09-29T13:24:36.195Z,60290.17
2018-09-29T13:27:04.366Z,60292.21
2018-09-29T13:29:32.739Z,60295.25
2018-09-29T13:32:01.035Z,60285.09
2018-09-29T13:34:29.411Z,60291.19
2018-09-29T13:36:57.770Z,60305.41
2018-09-29T13:39:25.973Z,60283.06
2018-09-29T13:41:54.230Z,60302.37
2018-09-29T13:44:22.483Z,60313.54
2018-09-29T13:46:50.715Z,60318.62
2018-09-29T13:49:18.898Z,60330.82
2018-09-29T13:51:47.320Z,60310.50
2018-09-29T13:54:15.748Z,60346.06
2018-09-29T13:56:43.959Z,60329.80
2018-09-29T13:59:12.386Z,60310.50
2018-09-29T14:01:40.711Z,60330.82
2018-09-29T14:04:09.631Z,60322.69
2018-09-29T14:06:37.815Z,60357.24
2018-09-29T14:09:08.263Z,60343.01
2018-09-29T14:11:36.478Z,60331.84
2018-09-29T14:14:05.134Z,60314.56
2018-09-29T14:16:33.354Z,60320.66
2018-09-29T14:19:01.531Z,60318.62
2018-09-29T14:21:29.748Z,60323.71
2018-09-29T14:23:58.151Z,60318.62
2018-09-29T14:26:26.359Z,60315.57
2018-09-29T14:28:54.667Z,60322.69
2018-09-29T14:31:22.947Z,60299.32
2018-09-29T14:33:51.243Z,60322.69
2018-09-29T14:36:19.543Z,60323.71
2018-09-29T14:38:47.820Z,60321.67
2018-09-29T14:41:16.000Z,60332.85
2018-09-29T14:43:44.177Z,60334.88
2018-09-29T14:46:12.367Z,60317.61
2018-09-29T14:48:40.771Z,60313.54
2018-09-29T14:51:09.136Z,60317.61
2018-09-29T14:53:37.507Z,60324.72
2018-09-29T14:56:05.851Z,60304.40
2018-09-29T14:58:34.165Z,60325.74
2018-09-29T15:01:02.503Z,60306.43
2018-09-29T15:03:30.863Z,60307.45
2018-09-29T15:05:59.157Z,60317.61
2018-09-29T15:08:27.678Z,60286.11
2018-09-29T15:10:55.992Z,60311.51
2018-09-29T15:13:24.503Z,60303.38
2018-09-29T15:15:52.952Z,60324.72
2018-09-29T15:18:21.140Z,60310.50
2018-09-29T15:20:49.396Z,60314.56
2018-09-29T15:23:17.618Z,60313.54
2018-09-29T15:25:45.820Z,60329.80
2018-09-29T15:28:14.042Z,60326.75
2018-09-29T15:30:42.304Z,60303.38
2018-09-29T15:33:10.489Z,60319.64
2018-09-29T15:35:38.672Z,60318.62
2018-09-29T15:38:06.867Z,60321.67
2018-09-29T15:40:35.068Z,60313.54
2018-09-29T15:43:03.342Z,60318.62
2018-09-29T15:45:31.527Z,60322.69
2018-09-29T15:47:59.732Z,60292.21
2018-09-29T15:50:27.927Z,60312.53
2018-09-29T15:52:56.138Z,60319.64
2018-09-29T15:55:24.370Z,60308.46
2018-09-29T15:57:52.591Z,60320.66
2018-09-29T16:00:20.795Z,60307.45
2018-09-29T16:02:49.009Z,60324.72
2018-09-29T16:05:17.204Z,60334.88
2018-09-29T16:07:45.431Z,60322.69
2018-09-29T16:10:13.713Z,60321.67
2018-09-29T16:12:41.928Z,60317.61
2018-09-29T16:15:10.111Z,60318.62
2018-09-29T16:17:38.314Z,60315.57
2018-09-29T16:20:06.550Z,60328.79
2018-09-29T16:22:34.778Z,60305.41
2018-09-29T16:25:02.979Z,60336.91
2018-09-29T16:27:31.178Z,60327.77
2018-09-29T16:29:59.389Z,60357.24
2018-09-29T16:32:27.581Z,60330.82
2018-09-29T16:34:55.821Z,60353.18
2018-09-29T16:37:24.032Z,60318.62
2018-09-29T16:39:52.228Z,60326.75
2018-09-29T16:42:20.408Z,60325.74
2018-09-29T16:44:48.611Z,60339.96
2018-09-29T16:47:16.799Z,60351.14
2018-09-29T16:49:44.996Z,60362.32
2018-09-29T16:52:13.187Z,60343.01
2018-09-29T16:54:41.371Z,60360.29
2018-09-29T16:57:09.567Z,60346.06
2018-09-29T16:59:37.738Z,60362.32
2018-09-29T17:02:05.996Z,60357.24
2018-09-29T17:04:34.330Z,60337.93
2018-09-29T17:07:02.442Z,60362.32
2018-09-29T17:09:30.623Z,60353.18
2018-09-29T17:11:58.810Z,60371.46
2018-09-29T17:14:27.010Z,60339.96
2018-09-29T17:16:55.204Z,60365.37
2018-09-29T17:19:23.390Z,60370.45
2018-09-29T17:21:51.640Z,60332.85
2018-09-29T17:24:19.767Z,60359.27
2018-09-29T17:26:47.959Z,60373.50
2018-09-29T17:29:16.130Z,60375.53
2018-09-29T17:31:44.366Z,60348.09
2018-09-29T17:34:12.511Z,60374.52
2018-09-29T17:36:40.790Z,60352.16
2018-09-29T17:39:10.251Z,60369.43
2018-09-29T17:41:38.616Z,60366.39
2018-09-29T17:44:06.851Z,60377.56
2018-09-29T17:46:35.188Z,60359.27
2018-09-29T17:49:03.963Z,60371.46
2018-09-29T17:51:32.173Z,60387.72
2018-09-29T17:54:00.362Z,60371.46
2018-09-29T17:56:28.567Z,60392.80
2018-09-29T17:58:56.779Z,60361.30
2018-09-29T18:01:24.980Z,60377.56
2018-09-29T18:03:53.179Z,60362.32
2018-09-29T18:06:21.351Z,60367.40
2018-09-29T18:08:49.548Z,60358.25
2018-09-29T18:11:17.735Z,60357.24
2018-09-29T18:13:46.004Z,60388.74
2018-09-29T18:16:14.234Z,60366.39
2018-09-29T18:18:42.541Z,60374.52
2018-09-29T18:21:10.752Z,60379.59
2018-09-29T18:23:38.968Z,60391.79
2018-09-29T18:26:07.219Z,60399.92
2018-09-29T18:28:35.455Z,60383.66
2018-09-29T18:31:03.674Z,60376.55
2018-09-29T18:33:31.895Z,60400.93
2018-09-29T18:36:00.117Z,60377.56
2018-09-29T18:38:28.303Z,60381.63
2018-09-29T18:40:56.517Z,60382.64
2018-09-29T18:43:25.911Z,60360.29
2018-09-29T18:45:54.129Z,60408.05
2018-09-29T18:48:22.349Z,60374.52
2018-09-29T18:50:50.576Z,60394.84
2018-09-29T18:53:18.836Z,60383.66
2018-09-29T18:55:47.051Z,60380.61
2018-09-29T18:58:15.263Z,60373.50
2018-09-29T19:00:43.512Z,60381.63
2018-09-29T19:03:11.688Z,60389.76
2018-09-29T19:05:39.891Z,60392.80
2018-09-29T19:08:08.096Z,60393.82
2018-09-29T19:10:36.280Z,60362.32
2018-09-29T19:13:04.476Z,60374.52
2018-09-29T19:15:32.687Z,60401.95
2018-09-29T19:18:00.884Z,60412.11
2018-09-29T19:20:29.062Z,60374.52
2018-09-29T19:22:57.234Z,60380.61
2018-09-29T19:25:25.432Z,60392.80
2018-09-29T19:27:53.632Z,60402.97
2018-09-29T19:30:21.830Z,60399.92
2018-09-29T19:32:50.044Z,60411.10
2018-09-29T19:35:18.226Z,60351.14
2018-09-29T19:37:46.425Z,60365.37
2018-09-29T19:40:14.639Z,60380.61
2018-09-29T19:42:42.856Z,60380.61
2018-09-29T19:45:11.078Z,60430.40
2018-09-29T19:47:39.259Z,60423.29
2018-09-29T19:50:07.541Z,60412.11
2018-09-29T19:52:35.728Z,60427.36
2018-09-29T19:55:03.976Z,60380.61
2018-09-29T19:57:32.207Z,60410.08
2018-09-29T20:00:00.640Z,60405.00
2018-09-29T20:02:28.979Z,60414.14
2018-09-29T20:04:57.215Z,60403.98
2018-09-29T20:07:25.411Z,60406.02
2018-09-29T20:09:53.619Z,60407.03
2018-09-29T20:12:21.811Z,60400.93
2018-09-29T20:14:49.993Z,60415.16
2018-09-29T20:17:18.224Z,60408.05
2018-09-29T20:19:46.408Z,60430.40
2018-09-29T20:22:14.583Z,60392.80
2018-09-29T20:24:42.780Z,60423.29
2018-09-29T20:27:10.978Z,60384.68
2018-09-29T20:29:39.495Z,60415.16
2018-09-29T20:32:07.938Z,60398.90
2018-09-29T20:34:36.128Z,60395.86
2018-09-29T20:37:04.368Z,60395.86
2018-09-29T20:39:32.519Z,60397.89
2018-09-29T20:42:00.716Z,60413.13
2018-09-29T20:44:28.907Z,60408.05
2018-09-29T20:46:57.104Z,60436.50
2018-09-29T20:49:25.337Z,60420.24
2018-09-29T20:51:53.529Z,60407.03
2018-09-29T20:54:21.800Z,60426.34
2018-09-29T20:56:50.005Z,60401.95
2018-09-29T20:59:18.193Z,60416.18
2018-09-29T21:01:46.379Z,60402.97
2018-09-29T21:04:14.589Z,60388.74
2018-09-29T21:06:42.791Z,60415.16
2018-09-29T21:09:10.989Z,60423.29
2018-09-29T21:11:39.185Z,60425.32
2018-09-29T21:14:07.405Z,60413.13
2018-09-29T21:16:35.590Z,60436.50
2018-09-29T21:19:03.790Z,60424.31
2018-09-29T21:21:31.989Z,60444.63
2018-09-29T21:24:00.205Z,60393.82
2018-09-29T21:26:28.447Z,60426.34
2018-09-29T21:28:56.670Z,60408.05
2018-09-29T21:31:24.859Z,60400.93
2018-09-29T21:33:53.046Z,60421.26
2018-09-29T21:36:21.275Z,60407.03
2018-09-29T21:38:49.435Z,60409.07
2018-09-29T21:41:17.652Z,60433.45
2018-09-29T21:43:45.846Z,60398.90
2018-09-29T21:46:14.034Z,60407.03
2018-09-29T21:48:42.231Z,60433.45
2018-09-29T21:51:10.429Z,60417.20
2018-09-29T21:53:38.645Z,60417.20
2018-09-29T21:56:06.864Z,60394.84
2018-09-29T21:58:35.051Z,60422.27
2018-09-29T22:01:08.473Z,60418.21
2018-09-29T22:03:36.665Z,60420.24
2018-09-29T22:06:04.869Z,60436.50
2018-09-29T22:08:33.065Z,60395.86
2018-09-29T22:11:01.267Z,60397.89
2018-09-29T22:13:29.502Z,60430.40
2018-09-29T22:15:57.711Z,60417.20
2018-09-29T22:18:25.929Z,60435.48
2018-09-29T22:20:54.161Z,60415.16
2018-09-29T22:23:22.328Z,60438.53
2018-09-29T22:25:50.539Z,60383.66
2018-09-29T22:28:18.812Z,60440.57
2018-09-29T22:30:47.018Z,60418.21
2018-09-29T22:33:15.187Z,60431.42
2018-09-29T22:35:43.388Z,60437.52
2018-09-29T22:38:11.582Z,60421.26
2018-09-29T22:40:39.772Z,60414.14
2018-09-29T22:43:08.283Z,60443.61
2018-09-29T22:45:36.472Z,60429.39
2018-09-29T22:48:04.695Z,60428.37
2018-09-29T22:50:32.880Z,60412.11
2018-09-29T22:53:01.068Z,60433.45
2018-09-29T22:55:29.271Z,60420.24
2018-09-29T22:57:57.467Z,60402.97
2018-09-29T23:00:25.651Z,60441.58
2018-09-29T23:02:53.860Z,60418.21
2018-09-29T23:05:22.050Z,60428.37
2018-09-29T23:07:50.259Z,60438.53
2018-09-29T23:10:18.447Z,60432.44
2018-09-29T23:12:46.655Z,60430.40
2018-09-29T23:15:14.828Z,60445.65
2018-09-29T23:17:42.994Z,60436.50
2018-09-29T23:20:11.191Z,60429.39
2018-09-29T23:22:39.367Z,60427.36
2018-09-29T23:25:07.586Z,60440.57
2018-09-29T23:27:35.791Z,60417.20
2018-09-29T23:30:04.792Z,60446.66
2018-09-29T23:32:32.968Z,60439.55
2018-09-29T23:35:01.187Z,60430.40
2018-09-29T23:37:29.380Z,60390.77
2018-09-29T23:39:57.603Z,60433.45
2018-09-29T23:42:25.811Z,60459.87
2018-09-29T23:44:54.004Z,60436.50
2018-09-29T23:47:22.202Z,60409.07
2018-09-29T23:49:50.411Z,60429.39
2018-09-29T23:52:18.640Z,60439.55
2018-09-29T23:54:46.841Z,60430.40
2018-09-29T23:57:15.043Z,60416.18
2018-09-29T23:59:43.227Z,60440.57
